Time;durP1;ratioP1;P1;durP2;ratioP2;P2;SDS_P1;SDS_P2;PMS_P1;PMS_P2;Temp;Humidity;BMP_temperature;BMP_pressure;BME280_temperature;BME280_humidity;BME280_pressure;Samples;Min_cycle;Max_cycle;Signal;HPM_P1;HPM_P2
2022/03/20 00:01:29;;;;;;;;;;;;;;;27.19;55.39;99233.10;617090;230;65306;-63
2022/03/20 00:03:56;;;;;;;;;;;;;;;27.19;54.76;99229.59;617070;230;63125;-63
2022/03/20 00:06:24;;;;;;;;;;;;;;;27.18;54.78;99227.98;617128;230;65133;-63
2022/03/20 00:08:54;;;;;;;;;;;;;;;27.15;54.35;99228.47;617143;230;64977;-63
2022/03/20 00:11:20;;;;;;;;;;;;;;;27.14;54.87;99233.03;617067;230;63174;-63
2022/03/20 00:13:48;;;;;;;;;;;;;;;27.12;54.53;99221.70;617083;230;65884;-63
2022/03/20 00:16:15;;;;;;;;;;;;;;;27.11;54.89;99220.05;617071;229;67265;-63
2022/03/20 00:18:43;;;;;;;;;;;;;;;27.12;53.61;99216.30;619171;229;65356;-63
2022/03/20 00:21:11;;;;;;;;;;;;;;;27.12;54.26;99221.70;619285;229;66922;-64
2022/03/20 00:23:39;;;;;;;;;;;;;;;27.10;54.08;99218.44;619194;229;66925;-64
2022/03/20 00:26:07;;;;;;;;;;;;;;;27.10;55.08;99215.73;619198;229;64076;-64
2022/03/20 00:28:35;;;;;;;;;;;;;;;27.09;53.47;99211.42;619230;229;65362;-64
2022/03/20 00:31:03;;;;;;;;;;;;;;;27.05;55.04;99215.70;619173;228;67717;-64
2022/03/20 00:33:30;;;;;;;;;;;;;;;27.05;54.95;99214.88;619229;229;63180;-64
2022/03/20 00:35:58;;;;;;;;;;;;;;;27.05;53.93;99215.70;619260;229;64886;-64
2022/03/20 00:38:25;;;;;;;;;;;;;;;27.05;54.20;99209.48;619193;229;66880;-64
2022/03/20 00:40:53;;;;;;;;;;;;;;;26.99;55.77;99206.75;619240;229;63250;-64
2022/03/20 00:43:20;;;;;;;;;;;;;;;26.97;55.62;99219.67;619263;229;66915;-64
2022/03/20 00:45:48;;;;;;;;;;;;;;;27.00;54.63;99223.74;619205;229;66716;-64
2022/03/20 00:48:16;;;;;;;;;;;;;;;27.00;55.34;99218.34;619301;229;65264;-64
2022/03/20 00:50:43;;;;;;;;;;;;;;;26.98;55.49;99212.38;619227;229;64734;-64
2022/03/20 00:53:11;;;;;;;;;;;;;;;26.96;54.96;99218.06;619212;229;64756;-63
2022/03/20 00:55:40;;;;;;;;;;;;;;;26.93;54.73;99220.47;619244;229;63222;-63
2022/03/20 00:58:07;;;;;;;;;;;;;;;26.93;55.47;99223.97;619190;229;67027;-63
2022/03/20 01:00:35;;;;;;;;;;;;;;;26.94;55.31;99222.08;619275;228;66833;-63
2022/03/20 01:03:02;;;;;;;;;;;;;;;26.92;56.02;99224.22;619252;229;65295;-63
2022/03/20 01:05:30;;;;;;;;;;;;;;;26.88;55.90;99223.92;619207;229;64703;-63
2022/03/20 01:07:59;;;;;;;;;;;;;;;26.88;56.47;99221.23;619260;229;66707;-62
2022/03/20 01:10:26;;;;;;;;;;;;;;;26.88;55.10;99218.53;619169;229;64992;-63
2022/03/20 01:12:55;;;;;;;;;;;;;;;26.89;54.88;99224.73;619247;229;64882;-64
2022/03/20 01:15:23;;;;;;;;;;;;;;;26.85;54.88;99227.14;619181;229;67401;-64
2022/03/20 01:17:51;;;;;;;;;;;;;;;26.83;56.78;99223.06;619175;229;65267;-63
2022/03/20 01:20:18;;;;;;;;;;;;;;;26.80;56.50;99229.78;619170;229;67037;-63
2022/03/20 01:22:46;;;;;;;;;;;;;;;26.78;56.04;99227.33;619203;229;64768;-63
2022/03/20 01:25:13;;;;;;;;;;;;;;;26.77;56.49;99223.02;619150;229;63264;-64
2022/03/20 01:27:42;;;;;;;;;;;;;;;26.77;57.55;99228.41;619305;229;67690;-64
2022/03/20 01:30:10;;;;;;;;;;;;;;;26.76;57.10;99234.05;619253;229;65671;-64
2022/03/20 01:32:39;;;;;;;;;;;;;;;26.75;57.83;99230.55;619245;229;65377;-64
2022/03/20 01:35:09;;;;;;;;;;;;;;;26.73;57.08;99224.58;619241;229;66855;-64
2022/03/20 01:37:36;;;;;;;;;;;;;;;26.73;58.00;99229.97;619245;229;66932;-64
2022/03/20 01:40:04;;;;;;;;;;;;;;;26.72;57.65;99227.55;619238;229;65403;-64
2022/03/20 01:42:32;;;;;;;;;;;;;;;26.70;56.67;99219.70;619268;229;67487;-64
2022/03/20 01:45:00;;;;;;;;;;;;;;;26.68;56.85;99221.86;619254;229;67026;-64
2022/03/20 01:47:27;;;;;;;;;;;;;;;26.67;57.08;99220.22;619161;229;65314;-63
2022/03/20 01:49:54;;;;;;;;;;;;;;;26.66;57.23;99223.99;619298;229;67214;-64
2022/03/20 01:52:25;;;;;;;;;;;;;;;26.66;56.83;99234.78;619221;229;66972;-63
2022/03/20 01:54:53;;;;;;;;;;;;;;;26.65;57.06;99227.74;619245;229;63224;-63
2022/03/20 01:57:22;;;;;;;;;;;;;;;26.64;57.79;99225.31;619287;229;65150;-63
2022/03/20 01:59:50;;;;;;;;;;;;;;;26.63;58.10;99232.59;619238;229;67141;-63
2022/03/20 02:02:17;;;;;;;;;;;;;;;26.62;58.31;99236.34;619226;229;65300;-63
2022/03/20 02:04:46;;;;;;;;;;;;;;;26.60;57.29;99233.11;619254;229;65021;-63
2022/03/20 02:07:15;;;;;;;;;;;;;;;26.58;58.28;99226.34;619243;229;66905;-64
2022/03/20 02:09:43;;;;;;;;;;;;;;;26.58;59.11;99229.84;619226;229;65239;-64
2022/03/20 02:12:11;;;;;;;;;;;;;;;26.57;58.94;99225.50;619236;229;67176;-64
2022/03/20 02:14:40;;;;;;;;;;;;;;;26.56;56.85;99240.06;619221;229;64680;-63
2022/03/20 02:17:10;;;;;;;;;;;;;;;26.54;57.63;99242.20;618426;229;65566;-63
2022/03/20 02:19:41;;;;;;;;;;;;;;;26.53;56.63;99244.08;617104;230;67219;-64
2022/03/20 02:22:09;;;;;;;;;;;;;;;26.53;57.52;99241.38;617151;230;64767;-64
2022/03/20 02:24:41;;;;;;;;;;;;;;;26.52;57.30;99245.16;617114;230;65471;-64
2022/03/20 02:27:15;;;;;;;;;;;;;;;26.53;57.14;99235.19;617110;230;64943;-64
2022/03/20 02:29:43;;;;;;;;;;;;;;;26.49;57.33;99239.41;617069;230;67972;-63
2022/03/20 02:32:12;;;;;;;;;;;;;;;26.49;58.42;99244.80;617187;230;64130;-63
2022/03/20 02:34:40;;;;;;;;;;;;;;;26.47;58.89;99241.56;617119;230;67394;-63
2022/03/20 02:37:08;;;;;;;;;;;;;;;26.46;58.60;99245.31;617105;230;65016;-63
2022/03/20 02:39:36;;;;;;;;;;;;;;;26.46;59.06;99248.01;617120;230;65549;-63
2022/03/20 02:42:05;;;;;;;;;;;;;;;26.43;58.21;99245.82;617091;230;67227;-63
2022/03/20 02:44:51;;;;;;;;;;;;;;;26.42;58.63;99236.92;617153;230;65041;-63
2022/03/20 02:47:20;;;;;;;;;;;;;;;26.41;58.00;99250.64;617181;230;65325;-64
2022/03/20 02:49:49;;;;;;;;;;;;;;;26.39;57.80;99253.61;617080;230;67103;-64
2022/03/20 02:52:18;;;;;;;;;;;;;;;26.39;59.55;99250.91;617024;230;67079;-64
2022/03/20 02:54:46;;;;;;;;;;;;;;;26.38;57.78;99248.45;617032;230;63937;-64
2022/03/20 02:57:13;;;;;;;;;;;;;;;26.39;59.31;99250.11;617132;230;67321;-64
2022/03/20 02:59:41;;;;;;;;;;;;;;;26.36;59.33;99256.81;617160;230;64931;-64
2022/03/20 03:02:09;;;;;;;;;;;;;;;26.35;57.58;99249.77;617102;230;63027;-64
2022/03/20 03:04:41;;;;;;;;;;;;;;;26.34;58.54;99253.55;617123;230;67257;-64
2022/03/20 03:07:09;;;;;;;;;;;;;;;26.31;59.20;99249.47;617110;230;65047;-64
2022/03/20 03:12:22;;;;;;;;;;;;;;;26.31;58.22;99245.97;617149;230;67049;-64
2022/03/20 03:17:35;;;;;;;;;;;;;;;26.29;59.08;99266.96;618286;229;66094;-63
2022/03/20 03:20:03;;;;;;;;;;;;;;;26.27;58.93;99264.53;619201;229;67159;-62
2022/03/20 03:22:31;;;;;;;;;;;;;;;26.26;58.22;99262.08;619213;229;67078;-62
2022/03/20 03:24:58;;;;;;;;;;;;;;;26.25;58.84;99260.46;619218;229;65283;-62
2022/03/20 03:27:25;;;;;;;;;;;;;;;26.24;59.32;99258.81;619279;229;67132;-63
2022/03/20 03:29:53;;;;;;;;;;;;;;;26.23;58.87;99266.09;619277;229;67001;-63
2022/03/20 03:32:20;;;;;;;;;;;;;;;26.22;59.45;99259.08;619191;229;65390;-63
2022/03/20 03:37:34;;;;;;;;;;;;;;;26.18;59.10;99266.02;619264;229;64868;-63
2022/03/20 03:40:02;;;;;;;;;;;;;;;26.17;59.22;99267.09;619205;229;63235;-63
2022/03/20 03:42:31;;;;;;;;;;;;;;;26.17;59.33;99263.59;619254;229;65114;-63
2022/03/20 03:44:58;;;;;;;;;;;;;;;26.15;59.40;99255.75;619186;229;67479;-63
2022/03/20 03:47:26;;;;;;;;;;;;;;;26.15;58.32;99261.14;619249;229;65439;-63
2022/03/20 03:49:53;;;;;;;;;;;;;;;26.13;58.98;99257.87;619207;229;67222;-62
2022/03/20 03:52:21;;;;;;;;;;;;;;;26.12;58.92;99264.34;619236;229;67252;-62
2022/03/20 03:54:48;;;;;;;;;;;;;;;26.13;59.39;99274.04;619251;229;65250;-62
2022/03/20 03:57:18;;;;;;;;;;;;;;;26.10;58.91;99263.77;619246;229;67217;-62
2022/03/20 03:59:45;;;;;;;;;;;;;;;26.08;59.86;99261.34;619230;229;64952;-62
2022/03/20 04:02:13;;;;;;;;;;;;;;;26.09;60.84;99256.76;619222;229;63151;-62
2022/03/20 04:04:45;;;;;;;;;;;;;;;26.07;60.05;99264.27;619224;228;64879;-62
2022/03/20 04:07:16;;;;;;;;;;;;;;;26.06;59.46;99266.16;619249;229;67011;-63
2022/03/20 04:09:42;;;;;;;;;;;;;;;26.06;59.43;99270.73;619233;229;62381;-62
2022/03/20 04:12:10;;;;;;;;;;;;;;;26.05;59.72;99269.09;619216;229;67429;-62
2022/03/20 04:14:38;;;;;;;;;;;;;;;26.03;59.40;99268.55;619218;229;66903;-62
2022/03/20 04:17:06;;;;;;;;;;;;;;;26.02;60.00;99270.40;618439;229;65271;-62
2022/03/20 04:19:34;;;;;;;;;;;;;;;26.01;59.31;99270.66;617117;230;64827;-63
2022/03/20 04:22:02;;;;;;;;;;;;;;;26.00;59.09;99277.09;617154;230;67123;-63
2022/03/20 04:24:30;;;;;;;;;;;;;;;25.99;59.83;99268.20;617074;230;65684;-63
2022/03/20 04:26:58;;;;;;;;;;;;;;;25.99;60.31;99270.09;617099;230;67307;-63
2022/03/20 04:29:30;;;;;;;;;;;;;;;25.97;59.90;99269.52;617129;230;65751;-63
2022/03/20 04:31:57;;;;;;;;;;;;;;;25.96;58.57;99281.37;617093;230;64105;-62
2022/03/20 04:34:26;;;;;;;;;;;;;;;25.96;59.74;99284.06;617069;230;67162;-62
2022/03/20 04:36:56;;;;;;;;;;;;;;;25.93;59.93;99282.68;617137;230;67067;-62
2022/03/20 04:39:24;;;;;;;;;;;;;;;25.93;59.10;99279.98;617098;230;65340;-62
2022/03/20 04:41:52;;;;;;;;;;;;;;;25.91;59.08;99279.41;617096;230;65004;-62
2022/03/20 04:44:19;;;;;;;;;;;;;;;25.91;58.94;99280.22;617108;230;64947;-62
2022/03/20 04:46:47;;;;;;;;;;;;;;;25.91;58.59;99274.02;617098;230;66423;-62
2022/03/20 05:00:18;;;;;;;;;;;;;;;25.84;59.89;99281.48;617101;230;67124;-63
2022/03/20 05:02:45;;;;;;;;;;;;;;;25.82;59.75;99283.58;617104;230;63320;-63
2022/03/20 05:05:13;;;;;;;;;;;;;;;25.82;59.55;99284.38;617123;230;64326;-64
2022/03/20 05:07:40;;;;;;;;;;;;;;;25.80;59.07;99281.11;617177;230;64395;-63
2022/03/20 05:15:42;;;;;;;;;;;;;;;25.78;59.80;99287.81;617081;230;67151;-63
2022/03/20 05:18:10;;;;;;;;;;;;;;;25.76;59.75;99288.08;617005;229;65483;-63
2022/03/20 05:20:37;;;;;;;;;;;;;;;25.76;60.17;99284.58;617071;230;66897;-63
2022/03/20 05:23:04;;;;;;;;;;;;;;;25.75;59.58;99282.92;617078;230;67022;-63
2022/03/20 05:25:32;;;;;;;;;;;;;;;25.74;60.23;99276.73;617041;230;65306;-63
2022/03/20 05:27:59;;;;;;;;;;;;;;;25.73;59.46;99285.88;617105;230;67514;-62
2022/03/20 05:30:27;;;;;;;;;;;;;;;25.71;59.67;99282.61;617016;230;67132;-62
2022/03/20 05:32:55;;;;;;;;;;;;;;;25.71;59.01;99277.22;617087;230;65552;-62
2022/03/20 05:35:22;;;;;;;;;;;;;;;25.71;60.21;99276.42;617086;230;67240;-62
2022/03/20 05:37:50;;;;;;;;;;;;;;;25.69;59.50;99276.66;617139;230;66989;-62
2022/03/20 05:40:18;;;;;;;;;;;;;;;25.69;60.16;99279.34;617084;230;65397;-62
2022/03/20 05:42:46;;;;;;;;;;;;;;;25.67;59.87;99273.38;617073;230;67365;-62
2022/03/20 05:45:14;;;;;;;;;;;;;;;25.67;59.84;99271.53;617094;230;65850;-62
2022/03/20 05:47:42;;;;;;;;;;;;;;;25.66;59.05;99269.07;617052;230;65435;-62
2022/03/20 05:50:10;;;;;;;;;;;;;;;25.66;59.71;99266.38;617085;230;67221;-62
2022/03/20 05:52:38;;;;;;;;;;;;;;;25.64;59.88;99271.19;617078;230;67012;-62
2022/03/20 05:55:06;;;;;;;;;;;;;;;25.63;60.35;99269.56;616616;230;65178;-62
2022/03/20 06:00:23;;;;;;;;;;;;;;;25.61;59.82;99271.69;609388;230;66347;-64
2022/03/20 06:02:51;;;;;;;;;;;;;;;25.59;60.36;99263.88;601549;230;62554;-64
2022/03/20 06:05:19;;;;;;;;;;;;;;;25.58;59.69;99277.56;603725;230;64165;-63
2022/03/20 06:07:47;;;;;;;;;;;;;;;25.58;60.14;99282.95;617112;230;66588;-63
2022/03/20 06:10:16;;;;;;;;;;;;;;;25.56;59.97;99280.48;617093;230;65446;-62
2022/03/20 06:12:43;;;;;;;;;;;;;;;25.56;60.55;99285.88;617072;230;67268;-62
2022/03/20 06:15:12;;;;;;;;;;;;;;;25.55;60.38;99280.76;617068;230;67481;-62
2022/03/20 06:17:41;;;;;;;;;;;;;;;25.53;60.50;99282.87;617110;229;63210;-63
2022/03/20 06:20:09;;;;;;;;;;;;;;;25.52;60.25;99284.75;617129;230;67343;-63
2022/03/20 06:22:37;;;;;;;;;;;;;;;25.53;60.72;99288.25;617116;230;67225;-63
2022/03/20 06:25:13;;;;;;;;;;;;;;;25.53;61.09;99296.33;617096;230;65557;-63
2022/03/20 06:27:42;;;;;;;;;;;;;;;25.51;60.00;99293.91;616834;230;67278;-64
2022/03/20 06:30:10;;;;;;;;;;;;;;;25.49;60.83;99289.83;617102;230;66868;-63
2022/03/20 06:32:38;;;;;;;;;;;;;;;25.49;60.29;99287.13;617141;230;65767;-63
2022/03/20 06:35:06;;;;;;;;;;;;;;;25.49;60.48;99290.63;617042;230;66872;-64
2022/03/20 06:37:40;;;;;;;;;;;;;;;25.49;61.26;99287.13;617113;230;64844;-65
2022/03/20 06:40:08;;;;;;;;;;;;;;;25.47;60.34;99282.79;617080;230;64148;-65
2022/03/20 06:42:36;;;;;;;;;;;;;;;25.50;60.76;99286.06;617113;230;67283;-63
2022/03/20 06:45:06;;;;;;;;;;;;;;;25.47;60.77;99279.28;617175;230;64999;-64
2022/03/20 06:47:38;;;;;;;;;;;;;;;25.47;60.59;99282.79;617114;230;65780;-64
2022/03/20 06:50:07;;;;;;;;;;;;;;;25.45;60.61;99284.94;616927;230;65196;-65
2022/03/20 06:52:35;;;;;;;;;;;;;;;25.46;60.62;99281.17;617052;230;67087;-64
2022/03/20 06:55:04;;;;;;;;;;;;;;;25.45;60.47;99279.55;617114;230;65327;-61
2022/03/20 06:57:31;;;;;;;;;;;;;;;25.44;60.45;99277.90;616868;230;64899;-63
2022/03/20 06:59:59;;;;;;;;;;;;;;;25.45;60.86;99274.16;616119;230;65037;-63
2022/03/20 07:02:27;;;;;;;;;;;;;;;25.44;60.93;99277.90;616879;230;65543;-63
2022/03/20 07:04:55;;;;;;;;;;;;;;;25.46;60.92;99280.36;617067;230;67104;-63
2022/03/20 07:07:26;;;;;;;;;;;;;;;25.45;60.70;99278.70;617121;230;66926;-63
2022/03/20 07:09:53;;;;;;;;;;;;;;;25.44;60.41;99277.90;617110;230;65339;-63
2022/03/20 07:12:21;;;;;;;;;;;;;;;25.46;60.53;99269.59;617139;230;64994;-63
2022/03/20 07:14:50;;;;;;;;;;;;;;;25.46;60.81;99265.02;617093;230;64979;-63
2022/03/20 07:17:19;;;;;;;;;;;;;;;25.47;60.06;99269.33;617974;229;64225;-63
2022/03/20 07:19:46;;;;;;;;;;;;;;;25.47;59.48;99266.64;619208;229;67201;-63
2022/03/20 07:22:15;;;;;;;;;;;;;;;25.48;60.59;99262.06;619286;229;66850;-63
2022/03/20 07:24:44;;;;;;;;;;;;;;;25.50;59.96;99259.13;619264;229;63319;-64
2022/03/20 07:29:58;;;;;;;;;;;;;;;25.52;60.57;99265.09;619223;229;67261;-64
2022/03/20 07:32:26;;;;;;;;;;;;;;;25.54;60.08;99254.91;619248;229;65280;-62
2022/03/20 07:34:53;;;;;;;;;;;;;;;25.56;60.86;99263.53;619214;229;65021;-63
2022/03/20 07:37:22;;;;;;;;;;;;;;;25.56;61.27;99258.14;619237;229;67152;-63
2022/03/20 07:39:52;;;;;;;;;;;;;;;25.56;60.68;99252.76;619270;229;65647;-63
2022/03/20 07:42:20;;;;;;;;;;;;;;;25.57;61.07;99249.83;619197;229;67016;-63
2022/03/20 07:44:49;;;;;;;;;;;;;;;25.59;59.44;99254.95;619207;229;67885;-64
2022/03/20 07:47:18;;;;;;;;;;;;;;;25.59;59.56;99253.09;619176;229;65403;-63
2022/03/20 07:49:50;;;;;;;;;;;;;;;25.62;60.50;99254.48;619174;229;66857;-63
2022/03/20 07:52:23;;;;;;;;;;;;;;;25.62;60.06;99241.83;619216;228;64738;-63
2022/03/20 07:54:50;;;;;;;;;;;;;;;25.64;60.42;99241.56;619046;229;66217;-63
2022/03/20 07:57:20;;;;;;;;;;;;;;;25.66;60.03;99242.14;619201;229;66249;-63
2022/03/20 07:59:50;;;;;;;;;;;;;;;25.66;58.01;99232.18;612802;229;46927;-63
2022/03/20 08:02:25;;;;;;;;;;;;;;;25.69;58.76;99228.17;612433;229;66835;-63
2022/03/20 08:04:54;;;;;;;;;;;;;;;25.71;59.92;99231.45;619256;229;67183;-63
2022/03/20 08:07:24;;;;;;;;;;;;;;;25.72;59.03;99235.75;619242;229;46118;-63
2022/03/20 08:09:54;;;;;;;;;;;;;;;25.73;58.53;99225.80;612833;229;45357;-63
2022/03/20 08:12:24;;;;;;;;;;;;;;;25.74;58.79;99222.86;619259;229;66891;-63
2022/03/20 08:14:53;;;;;;;;;;;;;;;25.76;58.72;99220.75;619139;229;64973;-64
2022/03/20 08:17:21;;;;;;;;;;;;;;;25.77;58.03;99216.17;619207;229;63309;-63
2022/03/20 08:19:50;;;;;;;;;;;;;;;25.79;57.98;99214.86;619127;229;67359;-62
2022/03/20 08:22:20;;;;;;;;;;;;;;;25.80;57.80;99221.86;619147;229;65948;-62
2022/03/20 08:24:48;;;;;;;;;;;;;;;25.82;57.25;99218.94;619216;229;65558;-62
2022/03/20 08:27:16;;;;;;;;;;;;;;;25.82;58.12;99211.66;619228;229;67241;-62
2022/03/20 08:29:49;;;;;;;;;;;;;;;25.83;58.10;99216.00;619064;229;45592;-63
2022/03/20 08:32:21;;;;;;;;;;;;;;;25.84;58.20;99211.45;619166;229;46808;-63
2022/03/20 08:34:50;;;;;;;;;;;;;;;25.84;58.10;99204.19;619194;229;67804;-63
2022/03/20 08:37:18;;;;;;;;;;;;;;;25.85;56.65;99207.69;619205;229;66858;-63
2022/03/20 08:39:46;;;;;;;;;;;;;;;25.87;57.47;99200.17;619191;229;63259;-64
2022/03/20 08:42:13;;;;;;;;;;;;;;;25.88;57.99;99191.02;619151;229;67308;-63
2022/03/20 08:44:41;;;;;;;;;;;;;;;25.89;57.78;99195.33;619179;229;65552;-62
2022/03/20 08:47:09;;;;;;;;;;;;;;;25.89;57.73;99198.02;619112;229;65263;-62
2022/03/20 08:49:36;;;;;;;;;;;;;;;25.90;57.66;99178.93;618811;229;64748;-62
2022/03/20 08:52:04;;;;;;;;;;;;;;;25.90;57.42;99195.09;618957;229;67093;-62
2022/03/20 08:54:32;;;;;;;;;;;;;;;25.91;57.73;99177.86;619036;229;65561;-62
2022/03/20 08:57:01;;;;;;;;;;;;;;;25.94;56.85;99184.63;619211;229;64512;-62
2022/03/20 08:59:29;;;;;;;;;;;;;;;25.92;57.38;99181.39;619202;229;66791;-62
2022/03/20 09:01:56;;;;;;;;;;;;;;;25.95;58.12;99182.77;619259;229;65475;-62
2022/03/20 09:04:24;;;;;;;;;;;;;;;25.94;57.21;99175.73;619230;229;66868;-62
2022/03/20 09:06:51;;;;;;;;;;;;;;;25.95;56.89;99170.11;619210;229;66861;-63
2022/03/20 09:09:19;;;;;;;;;;;;;;;25.97;56.99;99169.84;619217;229;62932;-63
2022/03/20 09:11:47;;;;;;;;;;;;;;;25.97;57.51;99164.45;619268;229;67256;-63
2022/03/20 09:14:15;;;;;;;;;;;;;;;25.97;57.20;99161.75;619139;229;64420;-63
2022/03/20 09:19:29;;;;;;;;;;;;;;;26.00;57.57;99151.31;619250;229;66767;-62
2022/03/20 09:21:57;;;;;;;;;;;;;;;26.00;57.31;99158.55;619205;229;66822;-62
2022/03/20 09:24:24;;;;;;;;;;;;;;;26.02;56.80;99151.04;619119;229;65373;-62
2022/03/20 09:26:52;;;;;;;;;;;;;;;26.02;56.59;99156.42;619257;229;64865;-62
2022/03/20 09:29:21;;;;;;;;;;;;;;;26.02;57.50;99153.73;619201;229;67158;-62
2022/03/20 09:31:50;;;;;;;;;;;;;;;26.02;56.72;99151.04;619185;229;65395;-63
2022/03/20 09:34:18;;;;;;;;;;;;;;;26.06;55.79;99144.09;619192;229;68261;-62
2022/03/20 09:36:45;;;;;;;;;;;;;;;26.06;56.52;99136.02;619179;229;65125;-62
2022/03/20 09:39:13;;;;;;;;;;;;;;;26.06;56.52;99136.82;619249;229;65629;-62
2022/03/20 09:41:41;;;;;;;;;;;;;;;26.08;55.77;99141.94;619086;229;64745;-62
2022/03/20 09:44:10;;;;;;;;;;;;;;;26.07;56.53;99133.05;619178;229;67047;-62
2022/03/20 09:46:37;;;;;;;;;;;;;;;26.09;56.24;99125.53;619219;229;63278;-62
2022/03/20 09:49:08;;;;;;;;;;;;;;;26.09;56.56;99117.45;619243;229;67217;-62
2022/03/20 09:51:38;;;;;;;;;;;;;;;26.11;56.23;99131.48;619290;228;44294;-63
2022/03/20 09:54:06;;;;;;;;;;;;;;;26.11;55.18;99114.52;619221;229;65344;-63
2022/03/20 09:56:33;;;;;;;;;;;;;;;26.13;56.26;99117.74;619205;229;67028;-63
2022/03/20 09:59:01;;;;;;;;;;;;;;;26.14;55.62;99127.48;619134;229;67233;-63
2022/03/20 10:01:29;;;;;;;;;;;;;;;26.14;55.51;99124.78;619253;229;63028;-63
2022/03/20 10:04:08;;;;;;;;;;;;;;;26.16;54.93;99127.20;619126;229;67167;-63
2022/03/20 10:06:38;;;;;;;;;;;;;;;26.16;55.80;99122.63;619046;229;67110;-62
2022/03/20 10:09:08;;;;;;;;;;;;;;;26.18;55.35;99131.27;619202;229;66220;-63
2022/03/20 10:11:37;;;;;;;;;;;;;;;26.18;56.23;99127.77;619207;229;67299;-63
2022/03/20 10:14:15;;;;;;;;;;;;;;;26.20;55.54;99122.95;619078;229;64694;-63
2022/03/20 10:16:45;;;;;;;;;;;;;;;26.20;55.56;99131.03;618618;229;62905;-66
2022/03/20 10:19:26;;;;;;;;;;;;;;;26.21;55.45;99130.77;615881;230;66865;-64
2022/03/20 10:21:55;;;;;;;;;;;;;;;26.18;56.45;99130.47;617144;230;67096;-63
2022/03/20 10:24:23;;;;;;;;;;;;;;;26.10;55.23;99120.95;616989;230;63204;-63
2022/03/20 10:27:01;;;;;;;;;;;;;;;26.09;53.42;99116.64;617006;230;67592;-63
2022/03/20 10:29:30;;;;;;;;;;;;;;;26.08;53.66;99112.30;616787;230;67118;-63
2022/03/20 10:32:03;;;;;;;;;;;;;;;26.11;52.85;99106.42;617129;230;66357;-63
2022/03/20 10:34:31;;;;;;;;;;;;;;;26.13;51.63;99112.35;617086;230;67156;-63
2022/03/20 10:36:59;;;;;;;;;;;;;;;26.14;52.35;99100.53;617182;230;65070;-63
2022/03/20 10:39:28;;;;;;;;;;;;;;;26.16;51.60;99109.15;617077;230;65286;-61
2022/03/20 10:41:59;;;;;;;;;;;;;;;26.16;52.67;99103.76;617008;230;67189;-63
2022/03/20 10:44:30;;;;;;;;;;;;;;;26.12;53.52;99094.57;617053;230;64778;-63
2022/03/20 10:47:09;;;;;;;;;;;;;;;26.16;51.12;99103.76;616766;230;65328;-63
2022/03/20 10:49:33;;;;;;;;;;;;;;;26.17;52.13;99086.54;616937;230;64839;-62
2022/03/20 10:52:03;;;;;;;;;;;;;;;26.18;51.58;99088.16;616990;230;64928;-62
2022/03/20 10:54:43;;;;;;;;;;;;;;;26.18;50.92;99080.06;616876;230;64415;-62
2022/03/20 10:57:12;;;;;;;;;;;;;;;26.21;50.66;99084.95;616894;230;67093;-63
2022/03/20 10:59:40;;;;;;;;;;;;;;;26.21;51.65;99071.47;616918;230;65021;-63
2022/03/20 11:02:09;;;;;;;;;;;;;;;26.23;50.26;99074.73;616907;230;63297;-63
2022/03/20 11:04:38;;;;;;;;;;;;;;;26.25;50.49;99064.52;616336;230;67657;-63
2022/03/20 11:07:07;;;;;;;;;;;;;;;26.26;50.94;99074.22;617023;230;64556;-63
2022/03/20 11:09:34;;;;;;;;;;;;;;;26.28;50.29;99058.61;617110;230;66160;-63
2022/03/20 11:12:04;;;;;;;;;;;;;;;26.27;50.37;99078.55;617090;230;67731;-62
2022/03/20 11:14:33;;;;;;;;;;;;;;;26.28;51.39;99064.00;617072;230;67338;-63
2022/03/20 11:17:02;;;;;;;;;;;;;;;26.30;51.41;99059.17;617661;229;63009;-63
2022/03/20 11:19:31;;;;;;;;;;;;;;;26.31;50.26;99060.78;619257;229;64749;-63
2022/03/20 11:22:03;;;;;;;;;;;;;;;26.33;50.30;99047.87;619173;229;67048;-63
2022/03/20 11:24:30;;;;;;;;;;;;;;;26.35;50.63;99044.91;619172;229;63281;-64
2022/03/20 11:27:00;;;;;;;;;;;;;;;26.37;51.28;99041.97;619199;229;67511;-64
2022/03/20 11:29:29;;;;;;;;;;;;;;;26.37;50.13;99036.57;619184;229;67041;-64
2022/03/20 11:31:59;;;;;;;;;;;;;;;26.39;49.95;99039.83;619287;229;65115;-64
2022/03/20 11:34:27;;;;;;;;;;;;;;;26.39;50.98;99037.94;619201;229;66967;-64
2022/03/20 11:37:02;;;;;;;;;;;;;;;26.39;50.83;99035.25;619239;229;64703;-64
2022/03/20 11:39:29;;;;;;;;;;;;;;;26.41;51.00;99043.06;619130;229;65315;-64
2022/03/20 11:42:15;;;;;;;;;;;;;;;26.41;50.75;99033.11;619146;229;67421;-65
2022/03/20 11:44:44;;;;;;;;;;;;;;;26.42;50.70;99033.92;619094;229;64815;-63
2022/03/20 11:47:19;;;;;;;;;;;;;;;26.43;50.20;99032.84;618944;229;63276;-63
2022/03/20 11:50:05;;;;;;;;;;;;;;;26.45;49.47;99022.62;619240;229;68083;-63
2022/03/20 11:52:50;;;;;;;;;;;;;;;26.46;49.30;99021.53;619219;229;67324;-63
2022/03/20 11:55:32;;;;;;;;;;;;;;;26.46;51.16;99008.86;619224;229;65553;-66
2022/03/20 11:58:05;;;;;;;;;;;;;;;26.47;50.42;99018.59;619243;229;67265;-64
2022/03/20 12:00:40;;;;;;;;;;;;;;;26.48;52.07;99022.09;619191;229;67154;-64
2022/03/20 12:03:15;;;;;;;;;;;;;;;26.48;50.45;99025.59;618965;229;65248;-64
2022/03/20 12:05:54;;;;;;;;;;;;;;;26.48;51.68;99016.70;619165;229;67138;-65
2022/03/20 12:08:26;;;;;;;;;;;;;;;26.49;50.35;99007.53;604390;234;67240;-65
2022/03/20 12:10:56;;;;;;;;;;;;;;;26.49;51.28;99005.67;619190;229;65281;-65
2022/03/20 12:13:25;;;;;;;;;;;;;;;26.49;50.72;98994.89;619183;229;67021;-65
2022/03/20 12:15:55;;;;;;;;;;;;;;;26.50;49.92;98999.20;619162;229;65684;-65
2022/03/20 12:18:22;;;;;;;;;;;;;;;26.52;49.66;98993.59;617320;229;62935;-64
2022/03/20 12:20:52;;;;;;;;;;;;;;;26.52;51.05;99002.48;617131;230;67327;-65
2022/03/20 12:23:39;;;;;;;;;;;;;;;26.53;51.44;98998.70;617060;230;66817;-64
2022/03/20 12:26:21;;;;;;;;;;;;;;;26.53;50.54;98987.92;616597;229;65667;-64
2022/03/20 12:28:48;;;;;;;;;;;;;;;26.53;51.11;98996.01;616595;230;64768;-66
2022/03/20 12:31:28;;;;;;;;;;;;;;;26.55;49.91;98995.77;616614;230;65092;-65
2022/03/20 12:34:14;;;;;;;;;;;;;;;26.55;49.90;99001.97;617064;230;63252;-65
2022/03/20 12:36:42;;;;;;;;;;;;;;;26.56;50.65;98975.81;617089;230;67789;-66
2022/03/20 12:39:11;;;;;;;;;;;;;;;26.55;50.91;98979.59;617100;230;64462;-65
2022/03/20 12:41:38;;;;;;;;;;;;;;;26.55;50.38;98982.28;617157;230;65242;-65
2022/03/20 12:44:09;;;;;;;;;;;;;;;26.55;50.58;98982.28;617037;230;44049;-65
2022/03/20 12:46:42;;;;;;;;;;;;;;;26.56;51.45;98970.41;617075;230;64437;-64
2022/03/20 12:49:06;;;;;;;;;;;;;;;26.56;50.01;98970.41;616977;230;65513;-65
2022/03/20 12:51:35;;;;;;;;;;;;;;;26.55;49.78;98971.50;617081;230;66722;-65
2022/03/20 12:54:15;;;;;;;;;;;;;;;26.57;51.00;98963.94;617142;230;67226;-65
2022/03/20 12:57:01;;;;;;;;;;;;;;;26.57;50.38;98966.63;617057;230;65287;-65
2022/03/20 12:59:26;;;;;;;;;;;;;;;26.55;50.03;98958.82;616984;230;67388;-65
2022/03/20 13:01:54;;;;;;;;;;;;;;;26.56;51.22;98957.73;617095;230;67045;-64
2022/03/20 13:04:23;;;;;;;;;;;;;;;26.56;51.26;98956.93;617014;230;65426;-66
2022/03/20 13:06:52;;;;;;;;;;;;;;;26.57;50.56;98950.45;617057;230;67018;-65
2022/03/20 13:09:19;;;;;;;;;;;;;;;26.56;51.55;98951.53;616993;230;64931;-65
2022/03/20 13:11:53;;;;;;;;;;;;;;;26.56;50.14;98954.23;617080;230;65328;-65
2022/03/20 13:14:22;;;;;;;;;;;;;;;26.54;49.67;98950.98;617094;230;64842;-65
2022/03/20 13:16:54;;;;;;;;;;;;;;;26.55;50.07;98952.62;617450;229;64768;-65
2022/03/20 13:19:32;;;;;;;;;;;;;;;26.57;50.70;98942.36;619157;229;64069;-65
2022/03/20 13:22:05;;;;;;;;;;;;;;;26.56;50.75;98941.56;619146;229;64451;-65
2022/03/20 13:24:36;;;;;;;;;;;;;;;26.55;51.92;98934.55;619000;229;66946;-64
2022/03/20 13:27:05;;;;;;;;;;;;;;;26.55;50.37;98931.86;619208;229;65232;-64
2022/03/20 13:29:34;;;;;;;;;;;;;;;26.57;51.25;98928.88;619154;229;66913;-64
2022/03/20 13:32:06;;;;;;;;;;;;;;;26.57;50.16;98928.88;612616;229;66714;-64